Time;durP1;ratioP1;P1;durP2;ratioP2;P2;SDS_P1;SDS_P2;PMS_P1;PMS_P2;Temp;Humidity;BMP_temperature;BMP_pressure;BME280_temperature;BME280_humidity;BME280_pressure;Samples;Min_cycle;Max_cycle;Signal;HPM_P1;HPM_P2
2021/06/02 00:01:59;;;;;;;2.22;1.23;;;;;;;12.57;67.21;98950.59;5051392;28;20033;-76
2021/06/02 00:04:26;;;;;;;1.55;1.38;;;;;;;12.59;66.73;98959.16;5051222;28;20622;-75
2021/06/02 00:06:57;;;;;;;3.80;1.65;;;;;;;12.57;67.56;98956.75;5049930;28;20040;-76
2021/06/02 00:09:23;;;;;;;1.80;1.70;;;;;;;12.60;67.09;98952.69;5059621;28;20032;-75
2021/06/02 00:11:50;;;;;;;3.97;2.28;;;;;;;12.62;67.34;98961.22;5050614;28;20400;-76
2021/06/02 00:14:18;;;;;;;6.10;2.72;;;;;;;12.66;67.40;98956.91;5065966;28;20032;-75
2021/06/02 00:16:44;;;;;;;0.98;0.88;;;;;;;12.68;66.93;98954.69;5070401;28;20031;-75
2021/06/02 00:19:09;;;;;;;2.50;1.55;;;;;;;12.69;67.09;98952.81;5069253;28;20036;-76
2021/06/02 00:21:35;;;;;;;1.38;0.90;;;;;;;12.71;66.89;98951.44;5072170;28;20027;-76
2021/06/02 00:24:01;;;;;;;3.25;1.85;;;;;;;12.72;67.08;98952.22;5071266;28;20028;-75
2021/06/02 00:26:32;;;;;;;2.20;1.45;;;;;;;12.76;67.06;98959.41;5069954;28;20020;-75
2021/06/02 00:28:58;;;;;;;0.80;0.80;;;;;;;12.75;67.24;98955.13;5051878;28;20024;-76
2021/06/02 00:31:23;;;;;;;2.13;1.00;;;;;;;12.80;67.30;98965.00;5051343;28;20025;-76
2021/06/02 00:33:49;;;;;;;2.20;1.60;;;;;;;12.86;67.22;98966.50;5049500;28;20067;-76
2021/06/02 00:36:17;;;;;;;2.72;1.70;;;;;;;12.87;67.59;98967.31;5051082;28;20027;-76
2021/06/02 00:38:44;;;;;;;;;;;;;;;12.89;67.54;98965.13;5051131;28;20025;-74
2021/06/02 00:41:09;;;;;;;1.88;0.85;;;;;;;12.87;67.25;98970.00;5054278;28;19909;-76
2021/06/02 00:43:35;;;;;;;2.15;0.90;;;;;;;12.86;66.97;98969.19;5052535;28;20499;-76
2021/06/02 00:46:00;;;;;;;1.73;1.50;;;;;;;12.81;66.72;98969.28;5059338;28;20400;-76
2021/06/02 00:48:26;;;;;;;4.18;1.30;;;;;;;12.80;66.20;98965.81;5049683;28;20027;-75
2021/06/02 00:50:51;;;;;;;4.28;1.40;;;;;;;12.77;66.10;98963.69;5050576;28;20457;-75
2021/06/02 00:53:18;;;;;;;2.38;1.70;;;;;;;12.70;66.79;98963.25;5050610;28;20025;-75
2021/06/02 00:55:44;;;;;;;2.75;1.90;;;;;;;12.70;66.75;98965.16;5050288;28;20025;-74
2021/06/02 00:58:15;;;;;;;2.15;1.65;;;;;;;12.67;66.60;98963.84;5050928;28;20520;-74
2021/06/02 01:00:41;;;;;;;1.50;1.10;;;;;;;12.64;66.89;98961.75;5050128;28;20396;-75
2021/06/02 01:03:10;;;;;;;2.78;1.83;;;;;;;12.58;67.04;98957.53;5065874;28;20016;-76
2021/06/02 01:05:37;;;;;;;3.08;1.23;;;;;;;12.59;67.17;98961.81;5070329;28;20035;-76
2021/06/02 01:08:04;;;;;;;2.95;1.88;;;;;;;12.56;67.40;98963.22;5062573;28;20020;-76
2021/06/02 01:10:30;;;;;;;2.20;1.30;;;;;;;12.53;67.59;98966.47;5050829;28;20033;-75
2021/06/02 01:12:58;;;;;;;0.88;0.82;;;;;;;12.48;67.76;98961.97;5050448;28;20286;-75
2021/06/02 01:15:25;;;;;;;1.63;0.90;;;;;;;12.43;68.29;98962.03;5053169;28;20020;-74
2021/06/02 01:17:51;;;;;;;1.85;1.42;;;;;;;12.41;68.41;98963.41;5058752;28;20040;-75
2021/06/02 01:20:18;;;;;;;3.33;1.63;;;;;;;12.40;68.07;98962.63;5063953;28;20025;-75
2021/06/02 01:22:44;;;;;;;4.03;2.27;;;;;;;12.41;68.17;98956.16;5054333;28;20525;-75
2021/06/02 01:25:16;;;;;;;1.17;1.00;;;;;;;12.39;67.98;98957.53;5054418;28;20024;-75
2021/06/02 01:27:42;;;;;;;1.17;1.08;;;;;;;12.44;67.91;98966.31;5052899;28;20072;-75
2021/06/02 01:30:12;;;;;;;2.08;0.85;;;;;;;12.46;67.55;98966.84;5054641;28;20078;-74
2021/06/02 01:33:03;;;;;;;1.52;1.15;;;;;;;12.52;67.55;98962.19;5054032;28;20487;-75
2021/06/02 01:35:50;;;;;;;1.00;0.80;;;;;;;12.52;67.02;98956.81;5045663;28;20049;-76
2021/06/02 01:38:22;;;;;;;2.15;1.60;;;;;;;12.61;67.40;98965.03;5054143;28;20025;-74
2021/06/02 01:41:18;;;;;;;2.45;1.63;;;;;;;12.65;67.76;98960.66;5053856;28;20021;-75
2021/06/02 01:44:10;;;;;;;1.50;1.15;;;;;;;12.69;67.18;98956.28;5053771;28;20025;-75
2021/06/02 01:47:03;;;;;;;0.77;0.60;;;;;;;12.72;67.17;98960.28;5049512;28;20028;-75
2021/06/02 01:50:06;;;;;;;4.10;1.23;;;;;;;12.75;67.63;98962.38;5054099;28;20052;-75
2021/06/02 01:52:52;;;;;;;0.60;0.60;;;;;;;12.77;67.14;98966.38;5065660;28;20028;-76
2021/06/02 01:55:39;;;;;;;1.48;1.33;;;;;;;12.75;67.26;98954.34;5073864;28;20032;-75
2021/06/02 01:58:13;;;;;;;1.45;1.20;;;;;;;12.80;67.29;98967.66;5072046;28;20024;-74
2021/06/02 02:00:49;;;;;;;2.45;0.80;;;;;;;12.81;67.42;98966.59;5073741;28;20024;-75
2021/06/02 02:03:37;;;;;;;1.50;0.90;;;;;;;12.84;67.38;98973.25;5053615;28;20078;-74
2021/06/02 02:06:40;;;;;;;2.13;1.33;;;;;;;12.82;66.80;98971.66;5060201;28;20028;-74
2021/06/02 02:09:29;;;;;;;0.60;0.60;;;;;;;12.80;66.42;98976.53;5071785;28;20103;-75
2021/06/02 02:12:16;;;;;;;2.70;1.25;;;;;;;12.80;66.96;98979.22;5071864;28;20483;-76
2021/06/02 02:14:57;;;;;;;5.53;2.70;;;;;;;12.79;66.65;98985.66;5073210;28;20024;-74
2021/06/02 02:17:57;;;;;;;2.63;1.13;;;;;;;12.77;66.72;98984.38;5071132;28;20028;-74
2021/06/02 02:20:38;;;;;;;1.20;1.10;;;;;;;12.73;66.10;98986.03;5070208;28;20450;-76
2021/06/02 02:23:29;;;;;;;4.65;1.75;;;;;;;12.70;66.53;98983.94;5056026;28;20090;-76
2021/06/02 02:26:36;;;;;;;0.68;0.52;;;;;;;12.72;66.17;99000.53;5072757;28;20177;-76
2021/06/02 02:29:21;;;;;;;0.65;0.65;;;;;;;12.71;66.89;98996.28;5013758;28;20510;-76
2021/06/02 02:32:18;;;;;;;1.75;0.93;;;;;;;12.72;66.98;98998.66;5030311;28;20033;-76
2021/06/02 02:35:21;;;;;;;1.55;0.85;;;;;;;12.74;66.79;98998.34;5064626;28;20039;-74
2021/06/02 02:37:58;;;;;;;1.55;0.82;;;;;;;12.73;67.01;98996.75;5064670;28;20025;-74
2021/06/02 02:40:36;;;;;;;2.10;1.23;;;;;;;12.76;67.11;99002.34;5051684;28;20070;-73
2021/06/02 02:43:10;;;;;;;1.65;1.00;;;;;;;12.72;67.84;98997.84;5052842;28;20021;-73
2021/06/02 02:45:44;;;;;;;0.63;0.63;;;;;;;12.72;68.44;98995.16;5052571;28;20024;-73
2021/06/02 02:48:25;;;;;;;2.55;1.60;;;;;;;12.72;68.65;99000.53;5051486;28;20090;-74
2021/06/02 02:51:12;;;;;;;1.00;0.73;;;;;;;12.70;68.68;99014.25;5051316;28;20083;-74
2021/06/02 02:53:48;;;;;;;2.85;0.90;;;;;;;12.68;69.36;99000.31;5059647;28;20024;-74
2021/06/02 02:56:25;;;;;;;1.73;1.08;;;;;;;12.63;69.36;99003.88;5057493;28;20024;-73
2021/06/02 02:59:30;;;;;;;2.65;1.38;;;;;;;12.64;70.26;99015.41;5071515;28;20028;-74
2021/06/02 03:02:07;;;;;;;1.90;0.93;;;;;;;12.63;70.23;99019.97;5064339;28;20103;-74
2021/06/02 03:04:40;;;;;;;1.48;1.00;;;;;;;12.62;69.80;99015.69;5060936;28;20031;-74
2021/06/02 03:07:08;;;;;;;1.05;0.93;;;;;;;12.65;69.87;99015.09;5052175;28;20082;-73
2021/06/02 03:09:54;;;;;;;2.25;0.77;;;;;;;12.64;70.03;99021.56;5050930;28;20117;-73
2021/06/02 03:12:34;;;;;;;1.10;0.77;;;;;;;12.64;70.07;99026.13;5052060;28;20032;-74
2021/06/02 03:15:04;;;;;;;0.85;0.60;;;;;;;12.55;70.23;99034.03;5052011;28;20056;-72
2021/06/02 03:17:39;;;;;;;1.92;1.10;;;;;;;12.48;71.28;99038.97;5052500;28;20090;-75
2021/06/02 03:20:13;;;;;;;2.03;0.90;;;;;;;12.47;70.70;99037.34;5053378;28;20067;-73
2021/06/02 03:23:15;;;;;;;1.27;0.70;;;;;;;12.45;70.77;99044.88;5052121;28;20021;-74
2021/06/02 03:26:00;;;;;;;1.85;0.85;;;;;;;12.46;70.77;99043.81;5052051;28;20016;-73
2021/06/02 03:28:44;;;;;;;1.50;1.38;;;;;;;12.45;70.00;99043.03;5058400;28;20052;-74
2021/06/02 03:31:22;;;;;;;1.10;0.93;;;;;;;12.49;70.50;99048.59;5070258;28;20036;-74
2021/06/02 03:34:18;;;;;;;1.10;0.80;;;;;;;12.52;70.02;99055.28;5057182;28;20084;-75
2021/06/02 03:36:58;;;;;;;1.15;0.60;;;;;;;12.61;69.77;99048.97;5049904;28;20379;-76
2021/06/02 03:39:48;;;;;;;0.75;0.73;;;;;;;12.70;69.30;99045.66;5050424;28;20369;-75
2021/06/02 03:42:53;;;;;;;1.08;0.90;;;;;;;12.80;68.95;99043.63;5069353;28;20062;-74
2021/06/02 03:45:37;;;;;;;1.05;0.90;;;;;;;13.00;68.83;99060.50;5066957;28;20449;-73
2021/06/02 03:48:13;;;;;;;1.02;0.80;;;;;;;13.00;68.27;99055.16;5063652;28;20507;-73
2021/06/02 03:51:15;;;;;;;1.13;0.75;;;;;;;13.08;67.90;99062.53;5054329;28;20440;-75
2021/06/02 03:53:52;;;;;;;2.50;1.30;;;;;;;13.09;67.99;99069.50;5052557;28;20028;-74
2021/06/02 03:56:46;;;;;;;2.10;1.15;;;;;;;13.08;67.37;99062.53;5055155;28;20045;-73
2021/06/02 03:59:20;;;;;;;1.33;1.23;;;;;;;13.15;67.20;99078.28;5051602;28;20499;-74
2021/06/02 04:01:53;;;;;;;1.63;1.35;;;;;;;13.15;66.59;99077.50;5051220;28;20103;-73
2021/06/02 04:04:33;;;;;;;1.90;1.75;;;;;;;13.15;66.70;99080.16;5055712;28;20078;-73
2021/06/02 04:07:07;;;;;;;1.08;0.77;;;;;;;13.14;66.55;99090.09;5049831;28;20480;-74
2021/06/02 04:10:02;;;;;;;2.25;0.65;;;;;;;13.15;66.35;99097.06;5062865;28;20425;-74
2021/06/02 04:12:33;;;;;;;2.15;0.90;;;;;;;13.16;67.31;99095.97;5071114;28;20080;-77
2021/06/02 04:15:03;;;;;;;1.40;0.90;;;;;;;13.15;67.54;99097.06;5071346;28;20457;-76
2021/06/02 04:17:28;;;;;;;3.38;0.85;;;;;;;13.15;67.20;99098.97;5065017;28;20032;-78
2021/06/02 04:19:55;;;;;;;1.88;0.70;;;;;;;13.10;67.47;99091.78;5049398;28;20028;-77
2021/06/02 04:22:23;;;;;;;1.10;0.80;;;;;;;13.11;67.28;99094.16;5051191;28;20468;-76
2021/06/02 04:24:49;;;;;;;0.88;0.60;;;;;;;13.13;67.17;99093.88;5049763;28;20122;-77
2021/06/02 04:27:17;;;;;;;1.40;1.00;;;;;;;13.18;67.16;99098.38;5049950;28;20420;-77
2021/06/02 04:29:51;;;;;;;0.50;0.50;;;;;;;13.20;67.68;99101.56;5051892;28;20017;-78
2021/06/02 04:32:17;;;;;;;1.67;0.98;;;;;;;13.22;67.39;99110.94;5061980;28;20037;-77
2021/06/02 04:34:44;;;;;;;0.75;0.60;;;;;;;13.21;66.70;99101.28;5066847;28;20028;-78
2021/06/02 04:37:12;;;;;;;1.30;0.80;;;;;;;13.24;66.18;99116.00;5070580;28;20044;-78
2021/06/02 04:39:40;;;;;;;0.67;0.67;;;;;;;13.23;66.40;99125.13;5069320;28;20033;-77
2021/06/02 04:42:07;;;;;;;;;;;;;;;13.26;66.02;99124.56;5069644;28;20078;-77
2021/06/02 04:44:34;;;;;;;1.13;0.63;;;;;;;13.29;66.35;99121.28;5069647;28;19915;-78
2021/06/02 04:47:00;;;;;;;4.18;0.68;;;;;;;13.33;65.81;99124.19;5069474;28;20021;-78
2021/06/02 04:49:48;;;;;;;0.60;0.60;;;;;;;13.39;65.86;99128.41;5072436;28;20471;-78
2021/06/02 04:52:32;;;;;;;0.90;0.57;;;;;;;13.43;65.83;99132.91;5075227;28;20070;-79
2021/06/02 04:55:00;;;;;;;2.47;1.52;;;;;;;13.50;66.14;99132.56;5073635;28;20063;-78
2021/06/02 04:57:37;;;;;;;1.23;1.13;;;;;;;13.57;65.72;99135.69;5073775;28;20021;-78
2021/06/02 05:00:40;;;;;;;4.27;3.50;;;;;;;13.69;66.24;99139.78;5075268;28;20066;-78
2021/06/02 05:03:43;;;;;;;6.35;1.70;;;;;;;13.84;66.15;99139.53;5074971;28;20371;-79
2021/06/02 05:06:11;;;;;;;0.95;0.88;;;;;;;14.00;65.81;99155.38;5074468;28;20040;-78
2021/06/02 05:08:58;;;;;;;2.55;0.57;;;;;;;14.15;65.59;99136.28;5073548;28;20020;-78
2021/06/02 05:12:01;;;;;;;2.35;0.90;;;;;;;14.38;64.79;99152.56;5073685;28;20123;-79
2021/06/02 05:14:45;;;;;;;1.27;1.17;;;;;;;14.92;65.45;99150.16;5073811;28;20111;-78
2021/06/02 05:17:32;;;;;;;1.58;0.98;;;;;;;15.63;64.05;99160.38;5074636;28;20020;-78
2021/06/02 05:23:29;;;;;;;0.80;0.73;;;;;;;17.98;57.28;99146.19;5074444;28;20532;-77
2021/06/02 05:26:01;;;;;;;0.75;0.50;;;;;;;18.93;52.45;99146.88;5073465;28;20483;-78
2021/06/02 05:28:45;;;;;;;0.73;0.60;;;;;;;19.90;50.06;99151.50;5073790;28;20388;-78
2021/06/02 05:31:29;;;;;;;0.20;0.20;;;;;;;20.60;45.98;99156.91;5072912;28;20028;-77
2021/06/02 05:34:16;;;;;;;0.95;0.55;;;;;;;21.21;46.58;99166.09;5074696;28;20059;-77
2021/06/02 05:37:03;;;;;;;0.95;0.30;;;;;;;21.46;44.36;99167.94;5074565;28;20024;-77
2021/06/02 05:40:06;;;;;;;0.50;0.40;;;;;;;21.64;42.94;99169.28;5074896;28;20020;-77
2021/06/02 05:42:34;;;;;;;0.50;0.50;;;;;;;21.65;43.63;99175.50;5073198;28;20024;-77
2021/06/02 05:45:00;;;;;;;0.90;0.60;;;;;;;21.57;42.75;99169.06;5074134;28;20475;-77
2021/06/02 05:47:34;;;;;;;2.20;0.57;;;;;;;21.57;43.57;99179.97;5072974;28;20083;-77
2021/06/02 05:50:38;;;;;;;2.47;0.50;;;;;;;21.78;42.74;99190.63;5074118;28;20017;-78
2021/06/02 05:53:31;;;;;;;0.80;0.60;;;;;;;21.77;39.83;99193.72;5074021;28;20020;-78
2021/06/02 05:56:50;;;;;;;0.30;0.30;;;;;;;21.86;40.09;99188.88;5074230;28;20027;-78
2021/06/02 05:59:53;;;;;;;0.40;0.40;;;;;;;21.99;38.62;99195.06;5051382;28;20033;-77
2021/06/02 06:02:40;;;;;;;0.30;0.30;;;;;;;22.22;39.36;99195.25;5073887;28;20086;-78
2021/06/02 06:05:30;;;;;;;1.98;0.50;;;;;;;22.55;38.72;99197.66;5072360;28;20070;-78
2021/06/02 06:08:46;;;;;;;0.52;0.25;;;;;;;22.75;38.51;99192.25;5074111;28;20495;-78
2021/06/02 06:11:42;;;;;;;1.27;0.93;;;;;;;23.06;38.83;99198.00;5034199;28;20028;-78
2021/06/02 06:14:45;;;;;;;0.43;0.43;;;;;;;23.14;35.83;99205.19;5034407;28;20029;-79
2021/06/02 06:17:13;;;;;;;0.70;0.50;;;;;;;23.15;37.51;99207.56;5008225;28;20037;-78
2021/06/02 06:20:00;;;;;;;2.15;0.60;;;;;;;23.12;36.64;99205.56;5056459;28;20036;-78
2021/06/02 06:22:56;;;;;;;0.80;0.75;;;;;;;22.86;35.94;99197.97;5073636;28;20075;-78
2021/06/02 06:25:51;;;;;;;0.73;0.43;;;;;;;22.37;37.17;99196.41;5073581;28;20025;-78
2021/06/02 06:28:29;;;;;;;0.40;0.40;;;;;;;21.92;38.09;99220.16;5069700;28;20036;-78
2021/06/02 06:30:56;;;;;;;1.63;0.70;;;;;;;21.67;39.79;99219.50;5071872;28;20032;-78
2021/06/02 06:33:26;;;;;;;0.47;0.47;;;;;;;21.36;40.40;99216.28;5073433;28;20127;-78
2021/06/02 06:35:54;;;;;;;1.67;0.70;;;;;;;21.15;40.63;99218.34;5071775;28;20020;-78
2021/06/02 06:38:21;;;;;;;;;;;;;;;20.76;40.39;99226.88;5072351;28;20016;-78
2021/06/02 06:40:51;;;;;;;0.38;0.38;;;;;;;20.34;38.81;99235.19;5071931;28;19904;-78
2021/06/02 06:43:20;;;;;;;0.50;0.50;;;;;;;20.11;40.28;99219.31;5071483;28;20127;-78
2021/06/02 06:45:48;;;;;;;2.10;0.55;;;;;;;20.06;40.24;99230.38;5071783;28;20104;-79
2021/06/02 06:48:21;;;;;;;0.50;0.50;;;;;;;19.95;41.36;99222.63;5073128;28;20161;-78
2021/06/02 06:50:50;;;;;;;0.45;0.40;;;;;;;19.88;41.50;99230.53;5071788;28;20509;-78
2021/06/02 06:53:17;;;;;;;0.60;0.60;;;;;;;19.79;42.11;99232.50;5072623;28;20032;-79
2021/06/02 06:55:45;;;;;;;0.47;0.47;;;;;;;19.65;40.39;99236.31;5071601;28;20166;-78
2021/06/02 06:58:11;;;;;;;0.50;0.50;;;;;;;19.47;40.23;99234.81;5071331;28;20214;-79
2021/06/02 07:00:38;;;;;;;0.50;0.40;;;;;;;19.25;41.79;99230.53;5072624;28;20427;-78
2021/06/02 07:03:06;;;;;;;2.00;0.70;;;;;;;19.01;41.50;99237.38;5072338;28;20025;-78
2021/06/02 07:05:32;;;;;;;1.70;0.43;;;;;;;18.94;44.20;99234.38;5072464;28;20051;-79
2021/06/02 07:07:58;;;;;;;0.30;0.30;;;;;;;18.85;41.39;99237.91;5072446;28;20070;-78
2021/06/02 07:10:26;;;;;;;0.77;0.75;;;;;;;18.62;43.74;99233.88;5072542;28;20024;-78
2021/06/02 07:12:52;;;;;;;0.52;0.52;;;;;;;18.60;44.90;99234.19;5070260;28;20056;-78
2021/06/02 07:15:17;;;;;;;0.88;0.88;;;;;;;18.62;43.85;99226.53;5071142;28;20128;-78
2021/06/02 07:17:46;;;;;;;0.40;0.40;;;;;;;18.59;42.18;99229.09;5071198;28;20020;-78
2021/06/02 07:20:16;;;;;;;0.60;0.60;;;;;;;18.38;42.49;99238.75;5070946;28;20364;-78
2021/06/02 07:22:46;;;;;;;0.40;0.40;;;;;;;18.23;42.97;99236.53;5071193;28;20433;-78
2021/06/02 07:25:17;;;;;;;0.50;0.50;;;;;;;18.15;42.94;99231.94;5071211;28;20020;-79
2021/06/02 07:27:44;;;;;;;0.70;0.70;;;;;;;17.90;43.16;99226.22;5071977;28;20383;-78
2021/06/02 07:30:11;;;;;;;0.80;0.80;;;;;;;17.82;45.11;99227.03;5070674;28;20444;-78
2021/06/02 07:32:36;;;;;;;2.15;0.70;;;;;;;17.86;45.49;99225.28;5071999;28;20054;-78
2021/06/02 07:35:02;;;;;;;0.63;0.63;;;;;;;17.97;45.12;99223.88;5071916;28;20107;-78
2021/06/02 07:37:28;;;;;;;0.80;0.40;;;;;;;17.91;45.13;99233.22;5071107;28;20032;-78
2021/06/02 07:39:53;;;;;;;0.50;0.50;;;;;;;17.94;47.42;99227.16;5072094;28;20021;-78
2021/06/02 07:42:19;;;;;;;0.70;0.70;;;;;;;17.99;45.67;99240.59;5071411;28;20029;-78
2021/06/02 07:44:44;;;;;;;1.60;0.80;;;;;;;17.90;44.25;99242.47;5071883;28;20471;-78
2021/06/02 07:47:11;;;;;;;0.80;0.60;;;;;;;17.90;44.38;99234.34;5070607;28;20092;-78
2021/06/02 07:49:37;;;;;;;1.08;0.90;;;;;;;17.90;45.31;99229.72;5070698;28;20101;-78
2021/06/02 07:52:02;;;;;;;1.15;0.75;;;;;;;17.91;44.59;99244.06;5070451;28;20078;-77
2021/06/02 07:54:28;;;;;;;0.93;0.93;;;;;;;17.92;45.51;99237.53;5071852;28;20115;-78
2021/06/02 07:56:54;;;;;;;0.73;0.73;;;;;;;17.90;44.14;99245.16;5070512;28;20461;-77
2021/06/02 07:59:20;;;;;;;1.42;0.85;;;;;;;17.85;45.10;99234.53;5070194;28;20025;-77
2021/06/02 08:01:47;;;;;;;1.63;0.95;;;;;;;17.89;44.95;99246.28;5070397;28;20475;-77
2021/06/02 08:04:13;;;;;;;2.47;0.95;;;;;;;17.90;45.14;99243.25;5069891;28;20028;-78
2021/06/02 08:06:39;;;;;;;2.05;1.95;;;;;;;17.92;44.21;99242.94;5070580;28;20050;-79
2021/06/02 08:09:06;;;;;;;1.17;0.75;;;;;;;17.93;44.33;99248.03;5070102;28;20113;-78
2021/06/02 08:11:32;;;;;;;1.38;0.80;;;;;;;17.84;44.04;99243.75;5070258;28;20024;-78
2021/06/02 08:13:57;;;;;;;3.47;1.40;;;;;;;17.81;45.26;99249.78;5071473;28;20549;-78
2021/06/02 08:16:23;;;;;;;0.80;0.80;;;;;;;17.79;45.46;99243.91;5071446;28;20460;-79
2021/06/02 08:18:48;;;;;;;1.38;0.82;;;;;;;17.87;47.53;99243.91;5071893;28;20471;-79
2021/06/02 08:21:14;;;;;;;1.98;0.88;;;;;;;17.91;46.53;99242.13;5071885;28;20024;-79
2021/06/02 08:23:40;;;;;;;2.88;0.90;;;;;;;17.99;47.57;99240.59;5070738;28;20059;-79
2021/06/02 08:26:05;;;;;;;1.02;0.90;;;;;;;18.05;46.97;99242.00;5069783;28;20436;-79
2021/06/02 08:28:32;;;;;;;0.60;0.60;;;;;;;18.10;44.69;99240.22;5070098;28;20511;-79
2021/06/02 08:30:57;;;;;;;1.08;0.98;;;;;;;18.08;44.10;99240.56;5069967;28;20032;-79
2021/06/02 08:33:23;;;;;;;0.85;0.85;;;;;;;17.99;43.49;99242.47;5069420;28;20511;-79
2021/06/02 08:35:50;;;;;;;1.02;0.93;;;;;;;18.03;43.78;99246.94;5071471;28;20139;-79
2021/06/02 08:38:15;;;;;;;2.17;0.80;;;;;;;18.06;43.66;99246.28;5069667;28;20115;-79
2021/06/02 08:40:41;;;;;;;0.85;0.85;;;;;;;18.08;43.02;99245.97;5069853;28;20467;-79
2021/06/02 08:43:06;;;;;;;1.38;1.05;;;;;;;18.15;44.32;99249.00;5072047;28;20036;-80
2021/06/02 08:45:32;;;;;;;1.88;0.93;;;;;;;18.24;45.05;99243.56;5070312;28;20031;-79
2021/06/02 08:47:58;;;;;;;1.38;0.80;;;;;;;18.32;45.70;99244.63;5071072;28;20551;-79
2021/06/02 08:50:24;;;;;;;2.25;0.82;;;;;;;18.42;43.71;99244.31;5069952;28;20464;-79
2021/06/02 08:52:50;;;;;;;0.75;0.75;;;;;;;18.42;43.31;99238.88;5070614;28;20038;-79
2021/06/02 08:55:19;;;;;;;1.38;1.20;;;;;;;18.48;44.68;99240.31;5070754;28;20033;-79
2021/06/02 08:57:47;;;;;;;1.02;1.02;;;;;;;18.54;44.60;99244.41;5069431;28;20471;-79
2021/06/02 09:00:17;;;;;;;0.70;0.70;;;;;;;18.58;43.70;99243.75;5070621;28;20056;-79
2021/06/02 09:02:45;;;;;;;2.20;0.90;;;;;;;18.65;43.97;99234.03;5071394;28;20468;-79
2021/06/02 09:05:12;;;;;;;0.93;0.90;;;;;;;18.77;43.54;99238.72;5069440;28;20490;-80
2021/06/02 09:07:40;;;;;;;0.95;0.90;;;;;;;18.82;43.69;99237.75;5070742;28;20028;-79
2021/06/02 09:10:11;;;;;;;0.73;0.70;;;;;;;18.86;43.91;99241.41;5069463;28;20472;-79
2021/06/02 09:12:39;;;;;;;2.15;0.98;;;;;;;18.85;43.63;99237.91;5069466;28;20468;-79
2021/06/02 09:15:14;;;;;;;1.05;0.98;;;;;;;18.92;44.20;99236.63;5069242;28;20096;-79
2021/06/02 09:18:05;;;;;;;0.85;0.82;;;;;;;18.97;44.46;99237.25;5069339;28;20551;-79
2021/06/02 09:20:57;;;;;;;1.85;0.73;;;;;;;19.02;45.38;99223.50;5069492;28;20035;-80
2021/06/02 09:23:34;;;;;;;0.98;0.70;;;;;;;19.12;44.42;99226.94;5069209;28;20027;-79
2021/06/02 09:26:22;;;;;;;0.70;0.50;;;;;;;19.19;43.21;99224.53;5069445;28;20110;-79
2021/06/02 09:28:53;;;;;;;1.30;0.60;;;;;;;19.27;43.86;99226.34;5069365;28;20028;-79
2021/06/02 09:31:30;;;;;;;0.70;0.68;;;;;;;19.35;42.22;99228.22;5070369;28;20032;-79
2021/06/02 09:33:57;;;;;;;1.75;0.43;;;;;;;19.39;44.44;99225.63;5069025;28;20044;-78
2021/06/02 09:36:34;;;;;;;0.82;0.65;;;;;;;19.31;42.32;99231.91;5071384;28;20031;-78
2021/06/02 09:39:12;;;;;;;0.63;0.63;;;;;;;19.24;42.00;99232.44;5074036;28;20025;-78
2021/06/02 09:41:47;;;;;;;1.40;0.80;;;;;;;19.14;41.53;99228.22;5073108;28;20025;-79
2021/06/02 09:44:13;;;;;;;0.73;0.73;;;;;;;18.99;42.00;99234.19;5072530;28;20028;-79
2021/06/02 09:47:04;;;;;;;0.98;0.93;;;;;;;18.80;41.77;99234.59;5073008;28;20474;-79
2021/06/02 09:49:46;;;;;;;0.80;0.80;;;;;;;18.65;41.14;99225.91;5072813;28;20383;-79
2021/06/02 09:52:11;;;;;;;0.60;0.60;;;;;;;18.63;43.26;99228.13;5072709;28;20529;-79
2021/06/02 09:54:37;;;;;;;1.77;1.20;;;;;;;18.60;43.20;99227.97;5073022;28;20024;-79
2021/06/02 09:57:13;;;;;;;1.23;0.52;;;;;;;18.56;42.05;99225.13;5072684;28;20021;-78
2021/06/02 09:59:55;;;;;;;0.30;0.30;;;;;;;18.56;42.62;99222.41;5072765;28;20404;-79
2021/06/02 10:02:21;;;;;;;0.55;0.55;;;;;;;18.70;44.02;99222.19;5072406;28;20032;-79
2021/06/02 10:05:05;;;;;;;0.60;0.60;;;;;;;18.83;42.43;99221.16;5072628;28;20476;-79
2021/06/02 10:07:30;;;;;;;1.40;0.50;;;;;;;18.95;43.12;99219.72;5073549;28;20021;-79
2021/06/02 10:10:19;;;;;;;0.60;0.52;;;;;;;19.14;43.18;99219.28;5072360;28;20028;-79
2021/06/02 10:12:57;;;;;;;0.95;0.45;;;;;;;19.25;41.37;99215.06;5073333;28;20025;-79
2021/06/02 10:15:29;;;;;;;0.47;0.47;;;;;;;19.35;41.20;99214.66;5073375;28;20487;-79
2021/06/02 10:17:54;;;;;;;0.65;0.65;;;;;;;19.52;41.17;99218.38;5072221;28;20033;-79
2021/06/02 10:20:20;;;;;;;0.40;0.40;;;;;;;19.58;40.26;99217.06;5071755;28;20012;-79
2021/06/02 10:22:52;;;;;;;1.63;0.75;;;;;;;19.58;41.97;99208.91;5072104;28;20029;-78
2021/06/02 10:25:20;;;;;;;0.80;0.75;;;;;;;19.73;40.36;99206.72;5071696;28;20036;-79
2021/06/02 10:27:48;;;;;;;0.90;0.90;;;;;;;19.80;40.36;99209.69;5073382;28;20082;-79
2021/06/02 10:30:14;;;;;;;;;;;;;;;19.88;41.33;99208.81;5072307;28;20020;-78
2021/06/02 10:32:41;;;;;;;1.17;0.50;;;;;;;19.94;41.84;99202.03;5071666;28;19920;-79
2021/06/02 10:35:07;;;;;;;0.68;0.60;;;;;;;20.09;40.77;99205.25;5071713;28;20111;-78
2021/06/02 10:37:39;;;;;;;0.63;0.30;;;;;;;20.17;39.81;99198.16;5072948;28;20058;-79
2021/06/02 10:40:09;;;;;;;0.47;0.47;;;;;;;20.24;40.03;99193.75;5071978;28;20380;-79
2021/06/02 10:42:38;;;;;;;0.50;0.50;;;;;;;20.34;40.05;99203.38;5071740;28;20024;-78
2021/06/02 10:45:10;;;;;;;;;;;;;;;20.34;39.94;99191.75;5071911;28;20024;-79
2021/06/02 10:47:36;;;;;;;2.45;0.70;;;;;;;20.39;39.68;99194.22;5072904;28;19904;-79
2021/06/02 10:50:02;;;;;;;1.40;1.08;;;;;;;20.35;39.25;99198.75;5071861;28;20085;-79
2021/06/02 10:52:41;;;;;;;2.05;1.05;;;;;;;20.28;40.29;99197.38;5071379;28;20108;-79
2021/06/02 10:55:31;;;;;;;1.13;1.02;;;;;;;20.21;39.33;99204.50;5072716;28;20024;-79
2021/06/02 10:58:24;;;;;;;4.90;0.85;;;;;;;20.21;40.25;99199.84;5071449;28;20027;-79
2021/06/02 11:00:53;;;;;;;0.60;0.60;;;;;;;20.27;40.55;99203.94;5073111;28;20025;-79
2021/06/02 11:03:27;;;;;;;;;;;;;;;20.32;40.26;99208.34;5073003;28;20081;-79
2021/06/02 11:05:57;;;;;;;0.68;0.68;;;;;;;20.31;39.39;99199.44;5071237;28;20310;-79
2021/06/02 11:08:42;;;;;;;0.45;0.45;;;;;;;20.28;39.99;99200.09;5071214;28;20135;-79
2021/06/02 11:11:37;;;;;;;1.17;0.80;;;;;;;20.26;39.87;99196.13;5072136;28;20434;-79
2021/06/02 11:14:20;;;;;;;4.82;0.90;;;;;;;20.28;39.56;99199.31;5072446;28;20136;-79
2021/06/02 11:16:50;;;;;;;1.00;0.70;;;;;;;20.29;40.35;99195.47;5072599;28;20062;-79
2021/06/02 11:19:24;;;;;;;1.38;1.00;;;;;;;20.21;40.75;99199.84;5072157;28;20059;-79
2021/06/02 11:21:53;;;;;;;3.13;1.00;;;;;;;20.20;42.02;99203.72;5071273;28;20024;-79
2021/06/02 11:24:46;;;;;;;2.28;1.23;;;;;;;20.17;40.45;99206.31;5070979;28;20027;-78
2021/06/02 11:29:46;;;;;;;1.33;1.23;;;;;;;20.03;41.45;99188.41;5072247;28;20028;-78
2021/06/02 11:32:16;;;;;;;2.45;1.48;;;;;;;19.90;41.53;99184.84;5070381;28;20411;-79
2021/06/02 11:34:43;;;;;;;1.25;1.10;;;;;;;19.88;41.83;99186.31;5070969;28;20080;-79
2021/06/02 11:37:16;;;;;;;1.17;1.08;;;;;;;19.86;41.44;99189.38;5070486;28;20028;-79
2021/06/02 11:39:43;;;;;;;1.30;1.15;;;;;;;19.83;41.53;99181.88;5072180;28;20078;-79
2021/06/02 11:42:10;;;;;;;0.90;0.90;;;;;;;19.88;41.47;99191.75;5070781;28;20396;-79
2021/06/02 11:44:38;;;;;;;1.48;1.38;;;;;;;19.90;41.45;99182.16;5070938;28;20537;-79
2021/06/02 11:47:08;;;;;;;1.15;1.08;;;;;;;19.87;41.00;99187.44;5070782;28;20067;-79
2021/06/02 11:49:35;;;;;;;0.98;0.95;;;;;;;19.87;41.94;99184.72;5070687;28;20459;-79
2021/06/02 11:52:15;;;;;;;2.75;1.10;;;;;;;19.87;41.67;99185.50;5070793;28;20027;-79
2021/06/02 11:54:54;;;;;;;1.17;1.00;;;;;;;19.88;41.58;99186.31;5071990;28;20032;-79
2021/06/02 11:57:27;;;;;;;1.98;0.90;;;;;;;19.80;41.69;99174.41;5071733;28;20021;-79
2021/06/02 11:59:54;;;;;;;1.42;1.20;;;;;;;19.78;41.98;99187.50;5070223;28;20055;-79
2021/06/02 12:02:20;;;;;;;1.23;1.10;;;;;;;19.78;42.05;99176.66;5070431;28;20103;-79
2021/06/02 12:04:46;;;;;;;1.48;1.05;;;;;;;19.82;41.62;99180.28;5070758;28;20111;-79
2021/06/02 12:07:22;;;;;;;0.85;0.85;;;;;;;19.83;41.53;99180.00;5071783;28;20032;-79
2021/06/02 12:09:52;;;;;;;1.38;0.90;;;;;;;19.84;41.87;99186.97;5071447;28;20020;-79
2021/06/02 12:12:18;;;;;;;1.25;1.02;;;;;;;19.87;41.80;99176.59;5070062;28;20111;-79
2021/06/02 12:14:57;;;;;;;1.38;1.05;;;;;;;19.89;41.86;99187.91;5070598;28;20102;-79
2021/06/02 12:17:27;;;;;;;1.27;1.05;;;;;;;19.90;41.94;99178.66;5069988;28;20028;-79